Time;durP1;ratioP1;P1;durP2;ratioP2;P2;SDS_P1;SDS_P2;PMS_P1;PMS_P2;Temp;Humidity;BMP_temperature;BMP_pressure;BME280_temperature;BME280_humidity;BME280_pressure;Samples;Min_cycle;Max_cycle;Signal;HPM_P1;HPM_P2
2023/08/16 00:03:34;;;;;;;4.15;2.60;;;;;;;22.36;80.89;99387.06;7299612;39;20262;31
2023/08/16 00:09:10;;;;;;;6.40;2.90;;;;;;;22.35;81.03;99396.38;7260085;40;20256;31
2023/08/16 00:14:27;;;;;;;2.70;2.50;;;;;;;22.52;80.22;99376.41;7022392;40;20233;31
2023/08/16 00:19:47;;;;;;;3.12;2.37;;;;;;;22.31;80.85;99370.47;7208589;40;20253;31
2023/08/16 00:25:18;;;;;;;2.80;2.50;;;;;;;22.25;81.39;99367.81;7196603;40;20327;31
2023/08/16 00:30:53;;;;;;;3.72;2.53;;;;;;;22.25;81.43;99368.66;7195671;40;20327;31
2023/08/16 00:36:29;;;;;;;3.83;2.60;;;;;;;22.23;81.35;99357.09;7206641;40;20261;31
2023/08/16 00:42:02;;;;;;;4.00;2.60;;;;;;;22.34;81.27;99352.66;7164472;40;20261;31
2023/08/16 00:47:34;;;;;;;2.92;2.60;;;;;;;22.37;81.11;99328.31;7154529;40;20356;31
2023/08/16 00:53:06;;;;;;;5.28;2.60;;;;;;;22.32;81.42;99341.91;7131514;40;20258;31
2023/08/16 00:58:39;;;;;;;3.60;2.67;;;;;;;22.17;81.69;99338.81;7166345;40;20270;31
2023/08/16 01:09:18;;;;;;;3.15;2.72;;;;;;;21.92;83.59;99329.91;7240806;40;21269;31
2023/08/16 01:14:52;;;;;;;3.53;2.60;;;;;;;21.87;83.11;99329.78;7226148;40;20309;31
2023/08/16 01:20:25;;;;;;;4.18;2.83;;;;;;;21.97;83.21;99317.19;7248463;40;20405;31
2023/08/16 01:25:57;;;;;;;4.05;2.80;;;;;;;22.00;83.06;99308.47;7233358;40;20269;31
2023/08/16 01:31:44;;;;;;;5.20;2.87;;;;;;;21.97;83.47;99302.63;7194122;40;22353;31
2023/08/16 01:42:19;;;;;;;5.35;3.00;;;;;;;21.70;83.82;99317.81;7155036;40;20546;31
2023/08/16 01:52:57;;;;;;;4.96;3.44;;;;;;;21.69;84.70;99329.87;7221337;40;20581;31
2023/08/16 01:58:17;;;;;;;4.03;3.10;;;;;;;21.76;83.84;99338.84;7157404;40;21280;31
2023/08/16 02:03:49;;;;;;;3.67;3.03;;;;;;;21.74;84.00;99344.56;7199763;40;20367;31
2023/08/16 02:09:25;;;;;;;4.62;3.00;;;;;;;21.74;86.27;99352.78;7211250;40;21384;31
2023/08/16 02:14:54;;;;;;;3.40;2.70;;;;;;;21.73;85.47;99339.28;7164265;40;20325;31
2023/08/16 02:20:14;;;;;;;4.62;3.00;;;;;;;21.72;84.90;99343.13;7133337;40;20252;31
2023/08/16 02:25:47;;;;;;;3.37;3.08;;;;;;;21.84;85.08;99342.09;7182484;40;20269;31
2023/08/16 02:31:05;;;;;;;3.43;3.10;;;;;;;;;;7214842;40;20366;31
2023/08/16 02:36:23;;;;;;;3.70;2.70;;;;;;;21.98;83.71;99350.97;7283336;39;21174;31
2023/08/16 02:41:58;;;;;;;3.47;3.00;;;;;;;22.03;83.92;99349.16;7313970;40;20473;31
2023/08/16 02:47:33;;;;;;;4.50;2.83;;;;;;;22.08;83.79;99344.87;7260162;40;20315;31
2023/08/16 02:52:50;;;;;;;3.10;2.80;;;;;;;22.09;83.27;99350.12;7289115;40;20269;31
2023/08/16 03:03:28;;;;;;;3.62;2.80;;;;;;;22.14;84.72;99354.91;7301625;39;21165;31
2023/08/16 03:14:04;;;;;;;3.47;2.95;;;;;;;22.12;84.55;99335.09;7335372;39;21226;31
2023/08/16 03:19:37;;;;;;;3.10;2.80;;;;;;;22.10;84.40;99348.25;7274274;40;20327;31
2023/08/16 03:25:09;;;;;;;3.03;2.73;;;;;;;22.11;84.95;99350.75;7239914;40;20253;31
2023/08/16 03:30:44;;;;;;;3.68;3.20;;;;;;;21.93;85.67;99312.41;7216359;40;20243;31
2023/08/16 03:36:18;;;;;;;5.30;3.17;;;;;;;21.92;85.30;99319.81;7155398;40;20258;31
2023/08/16 03:41:39;;;;;;;8.68;3.85;;;;;;;21.91;84.82;99296.12;7139126;40;20232;31
2023/08/16 03:46:56;;;;;;;5.45;3.45;;;;;;;21.86;85.42;99290.53;7165541;40;20262;31
2023/08/16 03:52:29;;;;;;;6.50;3.70;;;;;;;21.65;87.81;99320.44;7184627;40;20272;31
2023/08/16 03:57:47;;;;;;;3.60;3.30;;;;;;;21.36;88.46;99333.13;7187405;40;20253;31
2023/08/16 04:03:21;;;;;;;4.00;3.20;;;;;;;21.46;87.59;99326.00;7254102;40;20382;31
2023/08/16 04:08:54;;;;;;;3.90;3.30;;;;;;;21.49;87.61;99313.72;7216981;40;20294;31
2023/08/16 04:14:12;;;;;;;5.97;3.60;;;;;;;21.42;87.90;99338.50;7200239;40;20257;31
2023/08/16 04:19:32;;;;;;;4.22;3.50;;;;;;;21.61;87.46;99331.06;7213938;40;20331;31
2023/08/16 04:25:04;;;;;;;4.22;3.58;;;;;;;21.64;87.29;99314.09;7242329;40;20237;31
2023/08/16 04:30:20;;;;;;;4.75;3.40;;;;;;;21.58;87.75;99312.31;7188957;40;20248;31
2023/08/16 04:35:37;;;;;;;4.70;3.58;;;;;;;21.48;88.06;99303.81;7224903;40;20427;31
2023/08/16 04:46:14;;;;;;;4.06;3.72;;;;;;;21.33;89.68;99339.06;7270805;39;21263;31
2023/08/16 04:51:32;;;;;;;4.55;3.75;;;;;;;21.41;88.46;99336.81;7300446;39;20330;31
2023/08/16 05:02:05;;;;;;;5.80;3.60;;;;;;;21.41;88.37;99325.84;7291389;39;20284;31
2023/08/16 05:12:27;;;;;;;4.40;3.72;;;;;;;21.43;88.50;99320.13;7269804;40;21204;31
2023/08/16 05:17:59;;;;;;;4.53;3.33;;;;;;;21.52;88.14;99333.28;7275009;40;20335;31
2023/08/16 05:23:17;;;;;;;4.80;3.45;;;;;;;21.66;87.74;99335.84;7246967;40;20301;31
2023/08/16 05:33:56;;;;;;;5.40;3.85;;;;;;;21.75;87.77;99346.25;7241225;40;20257;31
2023/08/16 05:44:17;;;;;;;5.53;3.90;;;;;;;21.77;88.15;99374.28;7240254;40;21174;31
2023/08/16 05:49:50;;;;;;;5.93;4.80;;;;;;;21.78;88.01;99370.47;7237662;40;20261;31
2023/08/16 05:55:20;;;;;;;4.70;4.20;;;;;;;21.67;88.71;99376.78;7208007;40;21331;31
2023/08/16 06:00:55;;;;;;;5.82;5.22;;;;;;;21.70;89.23;99386.44;7193902;40;20263;31
2023/08/16 06:06:28;;;;;;;8.15;5.47;;;;;;;21.67;89.71;99386.91;7109624;40;20275;31
2023/08/16 06:11:48;;;;;;;6.43;5.35;;;;;;;21.78;89.13;99394.31;7168719;40;20251;31
2023/08/16 06:17:05;;;;;;;7.73;5.43;;;;;;;21.79;89.30;99390.50;7184050;40;20269;31
2023/08/16 06:22:41;;;;;;;8.57;5.73;;;;;;;21.83;89.98;99392.56;7177121;40;20343;31
2023/08/16 06:27:58;;;;;;;6.72;5.82;;;;;;;21.92;89.81;99393.94;7226303;40;21222;31
2023/08/16 06:33:15;;;;;;;6.30;5.70;;;;;;;22.00;89.88;99390.84;7248427;40;20249;31
2023/08/16 06:38:51;;;;;;;5.97;5.37;;;;;;;22.15;89.47;99400.53;7323344;39;20366;31
2023/08/16 06:44:26;;;;;;;7.30;5.60;;;;;;;22.31;90.15;99406.16;7321313;39;22469;31
2023/08/16 06:49:58;;;;;;;6.03;5.27;;;;;;;22.55;89.69;99407.03;7288173;39;20410;31
2023/08/16 06:55:29;;;;;;;6.75;5.05;;;;;;;22.67;90.01;99415.25;7253968;40;20277;31
2023/08/16 07:01:06;;;;;;;6.06;5.40;;;;;;;22.73;89.88;99412.41;7240842;40;20258;31
2023/08/16 07:06:22;;;;;;;7.10;6.40;;;;;;;22.73;88.61;99419.84;7245720;40;20277;31
2023/08/16 07:11:56;;;;;;;8.85;7.80;;;;;;;22.65;90.39;99415.47;7022115;40;20346;31
2023/08/16 07:17:13;;;;;;;7.88;6.86;;;;;;;22.76;90.19;99414.69;7183917;40;20250;31
2023/08/16 07:22:48;;;;;;;8.15;7.35;;;;;;;22.94;90.18;99412.88;7207636;40;20333;31
2023/08/16 07:28:24;;;;;;;9.07;8.07;;;;;;;22.93;90.78;99409.28;7211330;40;20253;31
2023/08/16 07:33:56;;;;;;;9.15;7.35;;;;;;;23.00;89.71;99418.22;7160921;40;20360;31
2023/08/16 07:39:32;;;;;;;9.50;7.35;;;;;;;23.02;90.26;99418.00;7175790;40;20279;31
2023/08/16 07:45:08;;;;;;;7.07;6.47;;;;;;;23.12;90.66;99430.06;7204775;40;20253;31
2023/08/16 07:50:28;;;;;;;8.15;6.50;;;;;;;23.45;89.32;99423.91;7244884;40;20246;31
2023/08/16 07:56:03;;;;;;;8.10;6.65;;;;;;;23.30;88.66;99423.56;7263994;39;20248;31
2023/08/16 08:01:40;;;;;;;6.34;5.74;;;;;;;23.54;88.93;99416.09;7267782;40;20304;31
2023/08/16 08:07:01;;;;;;;6.95;5.62;;;;;;;23.97;87.20;99426.53;7223501;40;20260;31
2023/08/16 08:12:36;;;;;;;6.57;5.78;;;;;;;24.02;85.23;99424.72;7225230;40;21185;31
2023/08/16 08:18:12;;;;;;;6.30;5.10;;;;;;;24.17;83.89;99424.19;7195151;40;20268;31
2023/08/16 08:23:32;;;;;;;7.00;5.35;;;;;;;24.37;83.61;99434.72;7202224;40;20258;31
2023/08/16 08:28:52;;;;;;;6.00;5.40;;;;;;;24.31;83.72;99422.75;7251973;40;20264;31
2023/08/16 08:34:28;;;;;;;6.43;4.70;;;;;;;24.40;82.23;99423.19;7207205;40;20363;31
2023/08/16 08:40:04;;;;;;;5.37;3.83;;;;;;;24.35;80.31;99423.97;7174968;40;20251;31
2023/08/16 08:45:40;;;;;;;4.20;3.80;;;;;;;24.32;80.34;99420.84;7148734;40;20247;31
2023/08/16 08:51:14;;;;;;;3.70;3.33;;;;;;;24.31;79.42;99421.94;7152873;40;20247;31
2023/08/16 08:56:49;;;;;;;3.58;3.25;;;;;;;24.28;78.70;99427.94;7164711;40;20255;31
2023/08/16 09:02:21;;;;;;;5.15;3.40;;;;;;;24.33;79.38;99425.28;7148374;40;20293;31
2023/08/16 09:07:59;;;;;;;5.64;3.50;;;;;;;24.57;78.97;99419.31;7163730;40;20302;31
2023/08/16 09:13:33;;;;;;;4.40;4.00;;;;;;;24.79;78.03;99426.84;7146536;40;20349;31
2023/08/16 09:18:53;;;;;;;4.75;3.30;;;;;;;25.16;76.81;99427.09;7124053;40;20438;31
2023/08/16 09:24:31;;;;;;;6.60;3.30;;;;;;;25.15;75.95;99431.78;7138033;40;20269;31
2023/08/16 09:29:46;;;;;;;4.15;3.58;;;;;;;25.30;76.29;99433.91;7141169;40;20446;31
2023/08/16 09:40:27;;;;;;;4.30;3.53;;;;;;;25.37;75.48;99427.09;7232799;40;20285;31
2023/08/16 09:46:03;;;;;;;4.80;3.85;;;;;;;25.50;74.97;99409.31;7227034;40;20249;31
2023/08/16 09:51:22;;;;;;;4.40;3.80;;;;;;;26.02;74.04;99420.69;7255101;40;20244;31
2023/08/16 09:56:58;;;;;;;4.00;3.35;;;;;;;26.52;71.18;99397.38;7235113;40;20437;31
2023/08/16 10:02:34;;;;;;;4.30;3.90;;;;;;;26.66;70.43;99395.81;7184730;40;20484;31
2023/08/16 10:08:10;;;;;;;6.10;4.25;;;;;;;26.89;69.89;99387.97;7191136;40;20246;31
2023/08/16 10:13:42;;;;;;;6.45;4.20;;;;;;;27.12;68.69;99389.47;7178141;40;20366;31
2023/08/16 10:19:14;;;;;;;4.72;4.12;;;;;;;27.31;69.59;99392.59;7205072;40;20257;31
2023/08/16 10:24:46;;;;;;;6.62;4.65;;;;;;;27.53;69.32;99364.72;7203753;40;20261;31
2023/08/16 10:30:18;;;;;;;7.65;4.90;;;;;;;27.47;67.86;99376.87;7182232;40;20313;31
2023/08/16 10:35:50;;;;;;;4.57;4.17;;;;;;;27.66;67.33;99376.13;7162044;40;20258;31
2023/08/16 10:46:27;;;;;;;4.85;3.97;;;;;;;27.84;67.50;99372.00;7159741;40;21106;31
2023/08/16 10:52:03;;;;;;;5.57;4.00;;;;;;;28.05;67.31;99359.81;7259246;40;20272;31
2023/08/16 10:57:39;;;;;;;4.35;3.95;;;;;;;28.27;64.39;99364.28;7256959;40;20264;31
2023/08/16 11:03:11;;;;;;;4.15;3.75;;;;;;;28.02;66.13;99365.94;7211410;40;20301;31
2023/08/16 11:08:42;;;;;;;5.07;3.97;;;;;;;28.05;65.70;99357.03;7190585;40;20246;31
2023/08/16 11:14:13;;;;;;;4.25;3.85;;;;;;;28.00;65.59;99351.50;7214675;40;20258;31
2023/08/16 11:19:46;;;;;;;5.30;4.40;;;;;;;28.17;64.87;99352.09;7212427;40;20264;31
2023/08/16 11:25:02;;;;;;;5.35;4.07;;;;;;;28.10;64.54;99356.25;7166223;40;20251;31
2023/08/16 11:30:36;;;;;;;5.00;4.00;;;;;;;28.46;65.36;99344.03;7212625;40;20250;31
2023/08/16 11:36:09;;;;;;;5.73;4.27;;;;;;;28.67;65.60;99353.13;7213926;40;20258;31
2023/08/16 11:41:44;;;;;;;5.80;4.20;;;;;;;28.91;62.75;99333.97;7194304;40;20320;31
2023/08/16 11:47:03;;;;;;;5.10;4.18;;;;;;;28.97;63.32;99341.16;7205104;40;20239;31
2023/08/16 11:52:40;;;;;;;4.78;4.30;;;;;;;29.01;62.65;99342.25;7255856;40;20276;31
2023/08/16 11:58:17;;;;;;;6.97;4.80;;;;;;;29.05;63.72;99329.44;7168513;40;20283;31
2023/08/16 12:03:49;;;;;;;6.13;4.50;;;;;;;29.27;63.22;99320.78;7189873;40;20250;31
2023/08/16 12:09:23;;;;;;;7.03;4.90;;;;;;;29.32;62.22;99321.56;7165438;40;20269;31
2023/08/16 12:14:55;;;;;;;5.05;4.40;;;;;;;28.95;63.81;99315.63;7186013;40;20281;31
2023/08/16 12:20:29;;;;;;;6.60;4.30;;;;;;;29.01;64.33;99315.31;7218338;40;21066;31
2023/08/16 12:26:02;;;;;;;6.05;4.57;;;;;;;29.20;61.91;99304.41;7188161;40;20258;31
2023/08/16 12:36:41;;;;;;;6.03;4.55;;;;;;;29.55;61.72;99300.63;7180085;40;20269;31
2023/08/16 12:42:14;;;;;;;4.87;4.25;;;;;;;29.61;62.76;99291.13;7157278;40;20431;31
2023/08/16 12:47:32;;;;;;;4.67;4.17;;;;;;;29.52;61.13;99281.75;7128156;40;20263;31
2023/08/16 12:53:07;;;;;;;5.80;4.50;;;;;;;29.43;62.44;99278.75;7160958;40;20256;31
2023/08/16 12:58:40;;;;;;;5.70;4.20;;;;;;;29.49;60.19;99282.31;7156398;40;20259;31
2023/08/16 13:04:12;;;;;;;4.80;3.70;;;;;;;29.79;59.93;99264.59;7163923;40;20416;31
2023/08/16 13:09:29;;;;;;;8.07;3.30;;;;;;;30.00;59.38;99260.56;7144840;40;20251;31
2023/08/16 13:15:03;;;;;;;6.55;3.70;;;;;;;29.81;59.82;99265.12;7164211;40;20238;31
2023/08/16 13:20:38;;;;;;;5.88;3.98;;;;;;;29.59;59.08;99267.53;7133258;40;20267;31
2023/08/16 13:26:10;;;;;;;5.85;3.70;;;;;;;29.87;57.85;99255.63;7172508;40;21329;31
2023/08/16 13:31:46;;;;;;;6.00;3.40;;;;;;;30.22;58.67;99260.91;7138144;40;20292;31
2023/08/16 13:37:06;;;;;;;3.75;3.30;;;;;;;30.47;56.91;99258.97;6934549;40;20308;31
2023/08/16 13:42:38;;;;;;;7.58;3.98;;;;;;;30.30;56.83;99259.41;7168015;40;20258;31
2023/08/16 13:48:09;;;;;;;5.47;3.85;;;;;;;30.39;57.12;99250.12;7201133;40;20265;31
2023/08/16 13:53:41;;;;;;;4.50;3.44;;;;;;;30.19;57.69;99238.41;7262204;40;20263;31
2023/08/16 13:59:01;;;;;;;5.12;3.53;;;;;;;29.75;58.93;99225.41;7232191;40;20277;31
2023/08/16 14:04:37;;;;;;;4.70;3.70;;;;;;;29.62;59.59;99226.09;7219741;40;20288;31
2023/08/16 14:10:09;;;;;;;6.32;4.15;;;;;;;29.75;60.26;99232.94;7186005;40;20499;31
2023/08/16 14:15:26;;;;;;;7.34;4.32;;;;;;;29.88;59.43;99232.31;7244202;40;20264;31
2023/08/16 14:20:59;;;;;;;9.14;4.76;;;;;;;29.65;60.45;99231.09;7228269;40;20241;31
2023/08/16 14:26:18;;;;;;;6.00;4.20;;;;;;;29.50;60.61;99223.69;7212942;40;20260;31
2023/08/16 14:31:36;;;;;;;4.55;4.00;;;;;;;29.62;60.80;99217.75;7218987;40;20245;31
2023/08/16 14:37:09;;;;;;;5.20;4.22;;;;;;;29.63;59.88;99215.81;7225005;40;20463;31
2023/08/16 14:42:27;;;;;;;6.54;4.46;;;;;;;29.85;60.49;99205.88;7217870;40;20238;31
2023/08/16 14:47:44;;;;;;;4.43;4.03;;;;;;;29.71;59.36;99209.63;7235324;40;20251;31
2023/08/16 14:53:15;;;;;;;10.75;4.10;;;;;;;29.72;60.02;99209.34;7243945;40;20244;31
2023/08/16 14:58:47;;;;;;;7.30;4.25;;;;;;;29.66;60.33;99223.56;7243700;40;20526;31
2023/08/16 15:04:05;;;;;;;5.43;4.30;;;;;;;29.51;60.55;99219.78;7159876;40;20352;31
2023/08/16 15:09:41;;;;;;;5.45;4.72;;;;;;;29.36;60.44;99200.44;7231054;40;20285;31
2023/08/16 15:15:16;;;;;;;7.28;4.50;;;;;;;29.20;61.38;99198.88;7198080;40;20277;31
2023/08/16 15:25:53;;;;;;;8.20;4.83;;;;;;;28.98;63.15;99173.47;7261246;40;20264;31
2023/08/16 15:31:10;;;;;;;7.05;5.70;;;;;;;28.98;61.96;99176.25;7261044;40;20319;31
2023/08/16 15:36:30;;;;;;;5.68;4.43;;;;;;;28.98;63.49;99165.16;7241528;40;20443;31
2023/08/16 15:42:05;;;;;;;8.13;4.20;;;;;;;28.85;63.11;99155.53;7194488;40;20419;31
2023/08/16 15:47:40;;;;;;;8.10;4.12;;;;;;;28.74;65.54;99153.09;7133298;40;20387;31
2023/08/16 15:52:57;;;;;;;5.70;4.20;;;;;;;28.77;63.87;99166.41;7221143;40;20253;31
2023/08/16 15:58:33;;;;;;;6.18;3.90;;;;;;;28.58;63.22;99163.41;7240841;40;20273;31
2023/08/16 16:09:09;;;;;;;5.35;4.00;;;;;;;28.35;65.91;99170.44;7214894;40;20446;31
2023/08/16 16:19:46;;;;;;;4.82;3.80;;;;;;;28.34;66.16;99188.22;7285335;39;21269;31
2023/08/16 16:25:18;;;;;;;4.78;3.90;;;;;;;28.37;65.41;99198.72;7272498;40;20280;31
2023/08/16 16:35:56;;;;;;;7.23;3.80;;;;;;;28.38;67.17;99194.00;7215124;40;21128;31
2023/08/16 16:41:14;;;;;;;4.68;4.20;;;;;;;28.38;66.21;99192.06;7200511;40;20277;31
2023/08/16 16:46:31;;;;;;;5.94;4.28;;;;;;;28.31;66.27;99185.97;7208718;40;20273;31
2023/08/16 16:52:07;;;;;;;5.90;4.05;;;;;;;28.10;65.59;99159.44;7212509;40;20451;31
2023/08/16 16:57:39;;;;;;;4.72;3.22;;;;;;;27.93;63.63;99178.28;7201530;40;20577;31
2023/08/16 17:03:00;;;;;;;6.53;3.60;;;;;;;27.83;64.40;99197.69;7193013;40;20368;31
2023/08/16 17:13:37;;;;;;;3.93;3.43;;;;;;;27.63;66.55;99160.63;7258201;40;20801;31
2023/08/16 17:24:16;;;;;;;5.20;4.00;;;;;;;27.45;68.55;99165.84;7269065;40;20281;31
2023/08/16 17:29:50;;;;;;;4.80;3.40;;;;;;;27.41;68.56;99161.97;7276182;40;20256;31
2023/08/16 17:35:37;;;;;;;4.43;3.78;;;;;;;27.37;69.33;99164.47;7267258;39;22467;31
2023/08/16 17:46:18;;;;;;;8.18;3.47;;;;;;;27.40;67.46;99180.53;7204439;40;20433;31
2023/08/16 17:56:55;;;;;;;4.40;2.90;;;;;;;27.29;65.24;99176.09;7294486;39;20348;31
2023/08/16 18:07:31;;;;;;;3.00;2.70;;;;;;;27.17;65.02;99175.50;7266005;39;21247;31
2023/08/16 18:12:49;;;;;;;4.97;3.30;;;;;;;27.09;66.69;99196.28;7232366;40;21177;31
2023/08/16 18:18:25;;;;;;;4.90;3.80;;;;;;;27.01;68.68;99205.12;7234015;40;20343;31
2023/08/16 18:23:58;;;;;;;5.47;4.47;;;;;;;26.90;69.39;99200.66;7235182;40;20297;31
2023/08/16 18:29:16;;;;;;;9.67;4.03;;;;;;;26.79;69.89;99205.31;7205878;40;20335;31
2023/08/16 18:34:35;;;;;;;4.70;3.80;;;;;;;26.61;70.58;99204.94;7175086;40;20246;31
2023/08/16 18:40:12;;;;;;;6.57;3.70;;;;;;;26.28;71.90;99200.66;7175101;40;20452;31
2023/08/16 18:45:46;;;;;;;4.75;3.50;;;;;;;26.13;72.62;99195.84;7237010;40;22437;31
2023/08/16 18:56:24;;;;;;;5.55;3.90;;;;;;;25.80;73.98;99197.00;7278213;39;21129;31
2023/08/16 19:06:59;;;;;;;4.50;3.70;;;;;;;25.73;73.26;99207.47;7230632;40;22309;31
2023/08/16 19:12:35;;;;;;;4.90;3.54;;;;;;;25.82;73.06;99221.59;7216576;40;20324;31
2023/08/16 19:17:55;;;;;;;6.65;3.80;;;;;;;25.78;72.46;99218.56;7212867;40;20257;31
2023/08/16 19:23:30;;;;;;;5.53;3.22;;;;;;;25.51;74.38;99228.78;7211162;40;20257;31
2023/08/16 19:34:07;;;;;;;5.90;3.37;;;;;;;25.17;75.89;99241.16;7187226;40;21297;31
2023/08/16 19:39:42;;;;;;;5.45;3.60;;;;;;;25.30;75.27;99255.38;7208627;40;20375;31
2023/08/16 19:45:17;;;;;;;4.15;3.20;;;;;;;25.30;74.35;99258.12;7214522;40;20264;31
2023/08/16 19:50:51;;;;;;;2.94;2.60;;;;;;;25.30;74.35;99255.38;7182236;40;20520;31
2023/08/16 19:56:10;;;;;;;4.25;2.70;;;;;;;25.34;74.02;99250.16;7203936;40;20385;31
2023/08/16 20:01:28;;;;;;;4.10;2.80;;;;;;;25.35;73.42;99265.62;7197295;40;20253;31
2023/08/16 20:07:04;;;;;;;2.46;2.16;;;;;;;25.31;73.23;99273.59;7196673;40;20272;31
2023/08/16 20:17:55;;;;;;;3.28;2.20;;;;;;;25.21;71.99;99283.69;7210050;40;21150;31
2023/08/16 20:28:32;;;;;;;2.40;2.10;;;;;;;24.83;72.71;99293.72;7261777;40;21467;31
2023/08/16 20:33:49;;;;;;;2.37;2.00;;;;;;;24.60;73.22;99292.03;7214076;40;20278;31
2023/08/16 20:39:10;;;;;;;2.20;2.00;;;;;;;24.43;74.50;99287.66;7176511;40;20369;31
2023/08/16 20:44:46;;;;;;;3.32;2.08;;;;;;;24.18;74.79;99279.84;7227507;40;20277;31
2023/08/16 20:50:23;;;;;;;2.40;2.00;;;;;;;24.10;75.56;99283.81;7200353;40;20246;31
2023/08/16 20:55:58;;;;;;;2.45;1.92;;;;;;;24.12;75.91;99278.06;7184578;40;20235;31
2023/08/16 21:01:34;;;;;;;3.75;2.10;;;;;;;24.28;74.46;99274.47;7164405;40;20270;31
2023/08/16 21:06:54;;;;;;;4.50;2.10;;;;;;;24.39;73.86;99281.81;7139888;40;20331;31
2023/08/16 21:12:29;;;;;;;5.25;2.40;;;;;;;24.35;74.49;99288.94;7160524;40;20265;31
2023/08/16 21:18:17;;;;;;;3.40;1.90;;;;;;;24.29;75.52;99281.66;7221948;40;20354;31
2023/08/16 21:28:53;;;;;;;2.40;2.17;;;;;;;24.21;75.30;99280.19;7243444;40;21202;31
2023/08/16 21:34:26;;;;;;;3.10;2.17;;;;;;;24.19;74.17;99276.84;6977667;40;20257;31
2023/08/16 21:39:58;;;;;;;2.30;1.87;;;;;;;24.11;74.73;99276.41;7203134;40;20281;31
2023/08/16 21:45:30;;;;;;;5.72;2.05;;;;;;;24.07;76.02;99272.47;7175967;40;20385;31
2023/08/16 21:56:07;;;;;;;4.00;2.22;;;;;;;23.98;74.79;99296.03;7195530;40;21269;31
2023/08/16 22:01:40;;;;;;;2.35;2.10;;;;;;;23.92;74.97;99278.56;7168923;40;20274;31
2023/08/16 22:07:11;;;;;;;2.20;1.75;;;;;;;23.90;75.81;99279.94;7182315;40;20282;31
2023/08/16 22:12:47;;;;;;;3.15;2.45;;;;;;;23.86;75.17;99282.34;7194801;40;20242;31
2023/08/16 22:18:22;;;;;;;2.78;2.33;;;;;;;23.75;75.88;99286.00;7196709;40;20276;31
2023/08/16 22:23:58;;;;;;;3.75;2.30;;;;;;;23.53;76.60;99285.06;7163176;40;20246;31
2023/08/16 22:29:34;;;;;;;2.90;2.45;;;;;;;23.43;77.66;99295.88;7200031;40;20241;31
2023/08/16 22:35:09;;;;;;;2.75;2.45;;;;;;;23.40;78.19;99296.34;7227676;40;21421;31
2023/08/16 22:40:29;;;;;;;4.15;2.90;;;;;;;23.20;77.99;99300.41;7211014;40;20228;31
2023/08/16 22:46:02;;;;;;;4.10;2.83;;;;;;;23.04;79.48;99290.19;7216001;40;21464;31
2023/08/16 22:51:35;;;;;;;5.80;2.77;;;;;;;22.99;79.10;99289.25;7202541;40;20352;31
2023/08/16 23:02:15;;;;;;;3.87;2.80;;;;;;;22.87;80.57;99292.87;7228608;40;20297;31
2023/08/16 23:07:50;;;;;;;4.15;3.05;;;;;;;22.95;79.70;99302.63;7248503;40;20260;31
2023/08/16 23:18:29;;;;;;;3.75;2.80;;;;;;;22.85;79.48;99313.44;7296189;39;20283;31
2023/08/16 23:23:50;;;;;;;4.50;3.20;;;;;;;22.80;79.58;99316.09;7208509;40;20269;31
2023/08/16 23:29:24;;;;;;;3.20;2.80;;;;;;;22.76;79.63;99314.91;7199688;40;20241;31
2023/08/16 23:35:00;;;;;;;3.40;2.90;;;;;;;22.69;80.90;99315.03;7218880;40;20262;31
2023/08/16 23:40:32;;;;;;;4.15;2.85;;;;;;;22.69;80.05;99312.28;7257422;40;20296;31
2023/08/16 23:51:09;;;;;;;3.83;2.92;;;;;;;22.43;81.39;99299.87;7263751;40;20710;31
